Ardooie, Belgium
Current Conditions -  °F | °C
As of 1:20 PM on Monday 20 Oct 2014 (Local Time) from EBOS Reporting Station
Few Clouds Few Clouds  
Wind Chill: 61°   Ceiling: Unl
Heat Index: 61°   Visibility: 6mi
Dew Point: 52°   Wind: 16mph
Humidity: 72%   Direction: 250°WSW
Pressure: 30.06"   Gusts: NA
Location:  50.98°N, 3.2°E
Report Text: EBOS 201120Z 25014KT 9999 FEW019 16/11 Q1018 NOSIG
Loading
Personal Weather Stations






























Interactive Weather Map
Tropical Storm Tracking
New forecast layout! Learn more

10-Day Weather Forecast

Advertisements
Track Severe Weather on mobile